createdAt,value
2023-02-24T00:01:51.512Z,98000.28
2023-02-24T00:04:20.836Z,97994.03
2023-02-24T00:06:48.636Z,97972.69
2023-02-24T00:09:23.842Z,97992.63
2023-02-24T00:11:59.282Z,97979.50
2023-02-24T00:14:29.265Z,97989.19
2023-02-24T00:16:58.787Z,97987.41
2023-02-24T00:19:29.132Z,97985.66
2023-02-24T00:21:55.941Z,97971.72
2023-02-24T00:24:23.172Z,97985.66
2023-02-24T00:26:54.471Z,97973.56
2023-02-24T00:29:24.224Z,97971.78
2023-02-24T00:32:00.490Z,97968.38
2023-02-24T00:34:29.542Z,97964.00
2023-02-24T00:36:57.288Z,97968.34
2023-02-24T00:39:35.191Z,97967.41
2023-02-24T00:42:05.842Z,97962.88
2023-02-24T00:44:35.394Z,97948.91
2023-02-24T00:47:04.944Z,97944.72
2023-02-24T00:49:33.839Z,97941.25
2023-02-24T00:52:00.552Z,97950.69
2023-02-24T00:54:28.453Z,97932.09
2023-02-24T00:56:56.290Z,97930.44
2023-02-24T00:59:24.157Z,97943.09
2023-02-24T01:01:51.509Z,97945.78
2023-02-24T01:04:20.079Z,97932.75
2023-02-24T01:07:00.083Z,97932.84
2023-02-24T01:09:30.314Z,97921.47
2023-02-24T01:12:16.709Z,97930.16
2023-02-24T01:14:49.535Z,97920.63
2023-02-24T01:17:19.256Z,97916.22
2023-02-24T01:19:49.187Z,97912.25
2023-02-24T01:22:17.962Z,97929.06
2023-02-24T01:24:46.668Z,97927.06
2023-02-24T01:27:17.682Z,97893.84
2023-02-24T01:29:45.322Z,97897.09
2023-02-24T01:32:19.374Z,97911.09
2023-02-24T01:34:47.059Z,97892.94
2023-02-24T01:37:16.691Z,97879.50
2023-02-24T01:39:47.448Z,97863.72
2023-02-24T01:42:20.259Z,97881.59
2023-02-24T01:44:47.583Z,97877.94
2023-02-24T01:47:21.025Z,97866.09
2023-02-24T01:49:51.810Z,97856.75
2023-02-24T01:52:23.993Z,97862.19
2023-02-24T01:55:09.307Z,97852.38
2023-02-24T01:57:38.816Z,97867.66
2023-02-24T02:00:37.167Z,97856.59
2023-02-24T02:03:16.609Z,97850.69
2023-02-24T02:05:45.315Z,97843.03
2023-02-24T02:08:13.725Z,97854.97
2023-02-24T02:10:44.381Z,97858.56
2023-02-24T02:13:14.093Z,97849.97
2023-02-24T02:15:56.853Z,97873.59
2023-02-24T02:18:26.212Z,97859.13
2023-02-24T02:21:15.278Z,97843.81
2023-02-24T02:23:54.132Z,97854.75
2023-02-24T02:26:33.347Z,97851.03
2023-02-24T02:29:21.962Z,97837.72
2023-02-24T02:32:31.658Z,97829.13
2023-02-24T02:35:02.992Z,97833.31
2023-02-24T02:37:41.451Z,97844.44
2023-02-24T02:40:20.066Z,97837.50
2023-02-24T02:43:06.874Z,97841.22
2023-02-24T02:45:47.649Z,97843.91
2023-02-24T02:48:25.742Z,97844.00
2023-02-24T02:51:04.312Z,97840.41
2023-02-24T02:53:39.150Z,97834.31
2023-02-24T02:56:15.039Z,97841.69
2023-02-24T02:58:55.641Z,97824.88
2023-02-24T03:01:28.460Z,97817.50
2023-02-24T03:04:04.773Z,97828.69
2023-02-24T03:06:40.622Z,97826.53
2023-02-24T03:09:18.246Z,97823.34
2023-02-24T03:11:49.288Z,97821.63
2023-02-24T03:14:19.885Z,97829.06
2023-02-24T03:16:49.551Z,97836.44
2023-02-24T03:19:20.995Z,97765.56
2023-02-24T03:21:57.791Z,97827.97
2023-02-24T03:24:24.635Z,97821.78
2023-02-24T03:27:13.564Z,97818.72
2023-02-24T03:29:55.111Z,97810.44
2023-02-24T03:32:33.490Z,97816.25
2023-02-24T03:35:04.301Z,97812.69
2023-02-24T03:37:33.591Z,97811.75
2023-02-24T03:40:11.952Z,97815.03
2023-02-24T03:42:43.747Z,97817.31
2023-02-24T03:45:11.232Z,97811.16
2023-02-24T03:47:40.672Z,97813.88
2023-02-24T03:50:31.694Z,97810.66
2023-02-24T03:53:01.665Z,97808.97
2023-02-24T03:55:33.322Z,97813.34
2023-02-24T03:58:16.980Z,97814.22
2023-02-24T04:01:13.622Z,97810.97
2023-02-24T04:04:03.508Z,97817.69
2023-02-24T04:06:51.393Z,97816.13
2023-02-24T04:09:26.850Z,97802.41
2023-02-24T04:12:27.092Z,97809.38
2023-02-24T04:15:13.530Z,97801.00
2023-02-24T04:17:55.530Z,97801.97
2023-02-24T04:20:30.845Z,97800.28
2023-02-24T04:23:14.267Z,97786.97
2023-02-24T04:25:44.782Z,97791.03
2023-02-24T04:28:12.330Z,97787.50
2023-02-24T04:30:45.551Z,97773.81
2023-02-24T04:33:13.192Z,97783.88
2023-02-24T04:35:40.639Z,97770.16
2023-02-24T04:38:07.304Z,97782.25
2023-02-24T04:40:34.796Z,97784.91
2023-02-24T04:43:01.841Z,97784.19
2023-02-24T04:45:30.905Z,97779.75
2023-02-24T04:48:02.938Z,97772.00
2023-02-24T04:50:33.304Z,97774.56
2023-02-24T04:53:03.796Z,97780.44
2023-02-24T04:55:34.762Z,97766.41
2023-02-24T04:58:02.142Z,97768.63
2023-02-24T05:00:33.536Z,97771.09
2023-02-24T05:03:02.891Z,97768.34
2023-02-24T05:05:33.233Z,97760.38
2023-02-24T05:08:03.115Z,97762.03
2023-02-24T05:10:42.317Z,97766.25
2023-02-24T05:13:13.894Z,97755.75
2023-02-24T05:15:43.146Z,97757.66
2023-02-24T05:18:14.888Z,97757.06
2023-02-24T05:21:03.280Z,97749.31
2023-02-24T05:23:36.250Z,97753.75
2023-02-24T05:26:09.037Z,97742.53
2023-02-24T05:28:40.818Z,97733.66
2023-02-24T05:31:23.855Z,97737.81
2023-02-24T05:33:54.688Z,97736.88
2023-02-24T05:36:22.446Z,97734.38
2023-02-24T05:38:56.572Z,97736.00
2023-02-24T05:41:32.440Z,97732.47
2023-02-24T05:44:02.425Z,97728.16
2023-02-24T05:46:32.646Z,97735.16
2023-02-24T05:49:09.243Z,97730.03
2023-02-24T05:51:39.242Z,97732.78
2023-02-24T05:54:08.835Z,97741.16
2023-02-24T05:56:43.873Z,97732.53
2023-02-24T05:59:12.594Z,97728.28
2023-02-24T06:01:42.055Z,97735.53
2023-02-24T06:04:09.981Z,97725.06
2023-02-24T06:06:42.316Z,97734.28
2023-02-24T06:09:12.746Z,97731.63
2023-02-24T06:11:41.313Z,97726.41
2023-02-24T06:14:09.749Z,97730.63
2023-02-24T06:16:39.930Z,97730.78
2023-02-24T06:19:08.754Z,97726.44
2023-02-24T06:21:41.226Z,97730.81
2023-02-24T06:24:18.104Z,97730.03
2023-02-24T06:26:46.083Z,97740.59
2023-02-24T06:29:15.154Z,97736.16
2023-02-24T06:31:44.048Z,97710.84
2023-02-24T06:34:13.164Z,97740.53
2023-02-24T06:36:40.357Z,97726.78
2023-02-24T06:39:13.582Z,97739.13
2023-02-24T06:41:42.556Z,97710.09
2023-02-24T06:44:09.618Z,97732.00
2023-02-24T06:46:37.345Z,97733.13
2023-02-24T06:49:04.689Z,97734.22
2023-02-24T06:51:31.968Z,97721.13
2023-02-24T06:53:59.600Z,97737.81
2023-02-24T06:56:27.429Z,97732.97
2023-02-24T06:58:56.873Z,97732.53
2023-02-24T07:01:26.194Z,97724.38
2023-02-24T07:04:25.680Z,97723.09
2023-02-24T07:06:57.673Z,97723.75
2023-02-24T07:09:26.599Z,97737.50
2023-02-24T07:11:56.146Z,97732.78
2023-02-24T07:14:26.121Z,97719.94
2023-02-24T07:16:57.829Z,97733.34
2023-02-24T07:19:29.170Z,97729.81
2023-02-24T07:22:01.032Z,97735.63
2023-02-24T07:24:36.131Z,97703.19
2023-02-24T07:27:07.078Z,97726.50
2023-02-24T07:29:37.711Z,97730.44
2023-02-24T07:32:08.712Z,97723.00
2023-02-24T07:34:40.092Z,97719.78
2023-02-24T07:37:08.635Z,97719.22
2023-02-24T07:39:39.877Z,97716.34
2023-02-24T07:42:14.991Z,97735.28
2023-02-24T07:44:47.890Z,97729.63
2023-02-24T07:47:16.136Z,97677.25
2023-02-24T07:49:43.214Z,97703.19
2023-02-24T07:52:11.636Z,97727.69
2023-02-24T07:54:39.870Z,97735.63
2023-02-24T07:57:13.769Z,97720.00
2023-02-24T07:59:47.162Z,97721.91
2023-02-24T08:02:16.165Z,97725.25
2023-02-24T08:04:51.658Z,97711.66
2023-02-24T08:07:24.974Z,97712.16
2023-02-24T08:10:14.787Z,97676.84
2023-02-24T08:12:43.011Z,97736.31
2023-02-24T08:15:17.726Z,97775.03
2023-02-24T08:17:47.483Z,97754.63
2023-02-24T08:20:16.141Z,97786.63
2023-02-24T08:22:47.474Z,97785.91
2023-02-24T08:25:20.005Z,97788.03
2023-02-24T08:28:12.146Z,97788.28
2023-02-24T08:30:45.931Z,97800.16
2023-02-24T08:33:20.345Z,97789.25
2023-02-24T08:36:02.155Z,97782.75
2023-02-24T08:38:40.862Z,97792.19
2023-02-24T08:41:18.551Z,97791.59
2023-02-24T08:43:48.620Z,97784.56
2023-02-24T08:46:21.172Z,97788.16
2023-02-24T08:48:57.168Z,97789.50
2023-02-24T08:51:37.311Z,97792.66
2023-02-24T08:54:28.418Z,97783.91
2023-02-24T08:56:56.993Z,97781.56
2023-02-24T08:59:38.649Z,97777.84
2023-02-24T09:02:19.669Z,97773.53
2023-02-24T09:04:51.679Z,97768.25
2023-02-24T09:07:23.791Z,97773.78
2023-02-24T09:09:58.433Z,97760.47
2023-02-24T09:12:29.731Z,97763.25
2023-02-24T09:15:05.351Z,97756.13
2023-02-24T09:17:57.270Z,97752.75
2023-02-24T09:20:27.647Z,97756.75
2023-02-24T09:23:10.478Z,97758.34
2023-02-24T09:25:45.124Z,97761.00
2023-02-24T09:28:25.341Z,97744.22
2023-02-24T09:30:56.326Z,97749.28
2023-02-24T09:33:27.567Z,97733.38
2023-02-24T09:36:13.365Z,97735.22
2023-02-24T09:39:00.286Z,97731.59
2023-02-24T09:41:57.843Z,97734.03
2023-02-24T09:44:34.429Z,97738.78
2023-02-24T09:47:40.230Z,97728.69
2023-02-24T09:50:55.000Z,97717.28
2023-02-24T09:53:17.919Z,97721.81
2023-02-24T09:56:04.094Z,97725.63
2023-02-24T09:58:59.174Z,97720.78
2023-02-24T10:01:53.686Z,97723.75
2023-02-24T10:04:36.400Z,97723.34
2023-02-24T10:07:05.536Z,97703.59
2023-02-24T10:09:55.833Z,97701.25
2023-02-24T10:12:32.029Z,97707.44
2023-02-24T10:15:21.040Z,97708.59
2023-02-24T10:17:56.987Z,97700.16
2023-02-24T10:20:39.611Z,97699.53
2023-02-24T10:23:37.859Z,97683.88
2023-02-24T10:26:07.629Z,97680.88
2023-02-24T10:28:52.063Z,97677.59
2023-02-24T10:31:46.142Z,97663.22
2023-02-24T10:34:25.509Z,97667.06
2023-02-24T10:36:57.897Z,97661.22
2023-02-24T10:39:26.307Z,97665.19
2023-02-24T10:41:57.692Z,97656.13
2023-02-24T10:44:39.415Z,97649.66
2023-02-24T10:47:13.350Z,97629.94
2023-02-24T10:49:57.178Z,97636.47
2023-02-24T10:52:51.317Z,97615.09
2023-02-24T10:55:49.893Z,97621.66
2023-02-24T10:58:44.901Z,97607.00
2023-02-24T11:01:21.378Z,97614.53
2023-02-24T11:04:01.700Z,97607.28
2023-02-24T11:06:53.077Z,97585.84
2023-02-24T11:09:28.464Z,97578.06
2023-02-24T11:12:17.139Z,97571.56
2023-02-24T11:15:20.235Z,97545.75
2023-02-24T11:17:57.872Z,97574.53
2023-02-24T11:20:29.428Z,97568.34
2023-02-24T11:23:05.731Z,97556.91
2023-02-24T11:25:42.712Z,97503.13
2023-02-24T11:28:56.003Z,97539.63
2023-02-24T11:31:52.758Z,97544.03
2023-02-24T11:35:01.323Z,97546.75
2023-02-24T11:38:08.586Z,97528.78
2023-02-24T11:40:45.598Z,97527.75
2023-02-24T11:43:23.258Z,97526.03
2023-02-24T11:46:01.364Z,97530.34
2023-02-24T11:48:37.762Z,97518.22
2023-02-24T11:51:18.191Z,97520.78
2023-02-24T11:54:03.472Z,97518.25
2023-02-24T11:56:40.611Z,97509.22
2023-02-24T11:59:28.068Z,97526.53
2023-02-24T12:02:43.894Z,97497.72
2023-02-24T12:05:37.353Z,97487.66
2023-02-24T12:08:10.215Z,97472.81
2023-02-24T12:10:52.806Z,97475.09
2023-02-24T12:13:30.717Z,97483.88
2023-02-24T12:16:30.818Z,97487.13
2023-02-24T12:19:23.867Z,97454.56
2023-02-24T12:22:03.234Z,97417.19
2023-02-24T12:24:30.201Z,97463.75
2023-02-24T12:27:08.471Z,97442.59
2023-02-24T12:29:42.723Z,97444.72
2023-02-24T12:32:25.295Z,97457.38
2023-02-24T12:35:14.092Z,97451.59
2023-02-24T12:38:03.562Z,97388.50
2023-02-24T12:40:45.975Z,97455.50
2023-02-24T12:43:21.450Z,97434.44
2023-02-24T12:46:00.607Z,97421.91
2023-02-24T12:48:45.736Z,97424.72
2023-02-24T12:51:38.936Z,97418.63
2023-02-24T12:54:24.486Z,97408.88
2023-02-24T12:56:55.103Z,97436.22
2023-02-24T12:59:27.945Z,97399.16
2023-02-24T13:02:18.310Z,97412.81
2023-02-24T13:05:05.098Z,97405.25
2023-02-24T13:07:37.761Z,97400.69
2023-02-24T13:10:29.507Z,97410.97
2023-02-24T13:13:29.516Z,97385.78
2023-02-24T13:15:58.601Z,97381.66
2023-02-24T13:18:26.752Z,97384.47
2023-02-24T13:21:08.047Z,97375.88
2023-02-24T13:23:37.620Z,97386.09
2023-02-24T13:26:04.489Z,97384.94
2023-02-24T13:28:36.041Z,97393.44
2023-02-24T13:31:09.663Z,97376.91
2023-02-24T13:33:42.462Z,97367.66
2023-02-24T13:36:12.259Z,97372.13
2023-02-24T13:38:43.031Z,97362.19
2023-02-24T13:41:21.354Z,97372.34
2023-02-24T13:44:28.139Z,97374.94
2023-02-24T13:47:34.300Z,97363.75
2023-02-24T13:50:26.966Z,97359.88
2023-02-24T13:53:27.046Z,97346.09
2023-02-24T13:56:00.391Z,97367.56
2023-02-24T13:59:07.262Z,97351.56
2023-02-24T14:01:48.001Z,97343.81
2023-02-24T14:04:22.957Z,97353.06
2023-02-24T14:06:56.356Z,97352.38
2023-02-24T14:09:27.191Z,97336.63
2023-02-24T14:12:16.785Z,97345.53
2023-02-24T14:14:44.582Z,97334.84
2023-02-24T14:17:28.808Z,97315.94
2023-02-24T14:20:16.588Z,97329.84
2023-02-24T14:22:55.630Z,97340.06
2023-02-24T14:25:23.781Z,97310.88
2023-02-24T14:27:52.887Z,97317.41
2023-02-24T14:30:35.516Z,97312.03
2023-02-24T14:33:04.019Z,97288.44
2023-02-24T14:35:30.706Z,97306.03
2023-02-24T14:37:57.689Z,97302.25
2023-02-24T14:40:25.663Z,97298.22
2023-02-24T14:42:54.653Z,97300.59
2023-02-24T14:45:26.925Z,97273.66
2023-02-24T14:47:55.897Z,97287.84
2023-02-24T14:50:29.972Z,97287.63
2023-02-24T14:53:05.505Z,97285.78
2023-02-24T14:55:37.903Z,97267.09
2023-02-24T14:58:21.250Z,97270.25
2023-02-24T15:00:53.222Z,97242.13
2023-02-24T15:04:01.445Z,97260.59
2023-02-24T15:06:32.750Z,97268.19
2023-02-24T15:09:04.990Z,97270.22
2023-02-24T15:11:32.884Z,97264.66
2023-02-24T15:14:07.315Z,97268.84
2023-02-24T15:16:39.012Z,97254.19
2023-02-24T15:19:21.957Z,97250.50
2023-02-24T15:21:48.799Z,97248.63
2023-02-24T15:24:24.668Z,97252.50
2023-02-24T15:26:59.324Z,97255.28
2023-02-24T15:29:28.661Z,97251.25
2023-02-24T15:31:57.502Z,97252.75
2023-02-24T15:34:27.788Z,97254.81
2023-02-24T15:36:58.793Z,97257.66
2023-02-24T15:39:31.275Z,97246.84
2023-02-24T15:42:32.430Z,97251.75
2023-02-24T15:45:23.083Z,97247.13
2023-02-24T15:47:56.280Z,97240.09
2023-02-24T15:50:23.422Z,97217.56
2023-02-24T15:52:50.229Z,97236.94
2023-02-24T15:55:21.820Z,97221.72
2023-02-24T15:57:58.445Z,97222.41
2023-02-24T16:00:26.216Z,97227.53
2023-02-24T16:02:52.966Z,97227.28
2023-02-24T16:05:19.847Z,97227.81
2023-02-24T16:07:46.719Z,97229.16
2023-02-24T16:10:23.232Z,97220.94
2023-02-24T16:12:56.162Z,97211.59
2023-02-24T16:15:33.318Z,97219.50
2023-02-24T16:18:02.379Z,97216.28
2023-02-24T16:20:37.394Z,97204.13
2023-02-24T16:23:05.838Z,97201.00
2023-02-24T16:25:41.938Z,97216.25
2023-02-24T16:28:20.525Z,97208.88
2023-02-24T16:30:48.939Z,97202.84
2023-02-24T16:33:17.258Z,97206.97
2023-02-24T16:35:45.004Z,97207.75
2023-02-24T16:38:17.366Z,97201.41
2023-02-24T16:40:46.962Z,97204.41
2023-02-24T16:43:15.023Z,97201.25
2023-02-24T16:45:43.705Z,97200.72
2023-02-24T16:48:20.694Z,97193.50
2023-02-24T16:50:48.336Z,97192.97
2023-02-24T16:53:18.829Z,97196.63
2023-02-24T16:55:46.651Z,97194.69
2023-02-24T16:58:14.359Z,97191.38
2023-02-24T17:00:43.605Z,97198.94
2023-02-24T17:03:21.253Z,97195.44
2023-02-24T17:05:48.094Z,97183.88
2023-02-24T17:08:15.764Z,97186.22
2023-02-24T17:10:43.923Z,97193.47
2023-02-24T17:13:16.605Z,97185.09
2023-02-24T17:15:43.421Z,97175.91
2023-02-24T17:18:10.508Z,97180.38
2023-02-24T17:20:38.554Z,97185.53
2023-02-24T17:23:05.667Z,97184.38
2023-02-24T17:25:32.644Z,97183.69
2023-02-24T17:27:59.829Z,97171.91
2023-02-24T17:30:28.245Z,97182.78
2023-02-24T17:32:55.220Z,97183.16
2023-02-24T17:35:22.794Z,97191.00
2023-02-24T17:37:49.757Z,97179.03
2023-02-24T17:40:16.531Z,97168.91
2023-02-24T17:42:43.724Z,97176.84
2023-02-24T17:45:11.924Z,97167.19
2023-02-24T17:47:39.696Z,97158.56
2023-02-24T17:50:07.910Z,97151.16
2023-02-24T17:52:35.009Z,97145.56
2023-02-24T17:55:01.690Z,97141.88
2023-02-24T17:57:29.527Z,97152.72
2023-02-24T17:59:56.586Z,97152.81
2023-02-24T18:02:24.332Z,97144.69
2023-02-24T18:04:51.347Z,97152.16
2023-02-24T18:07:18.494Z,97136.50
2023-02-24T18:09:45.746Z,97142.56
2023-02-24T18:12:12.537Z,97134.13
2023-02-24T18:14:39.241Z,97138.84
2023-02-24T18:17:05.955Z,97134.44
2023-02-24T18:19:32.738Z,97140.03
2023-02-24T18:21:59.642Z,97139.94
2023-02-24T18:24:26.439Z,97142.00
2023-02-24T18:26:53.300Z,97134.09
2023-02-24T18:29:20.054Z,97135.75
2023-02-24T18:31:47.004Z,97139.94
2023-02-24T18:34:13.708Z,97126.16
2023-02-24T18:36:40.522Z,97129.78
2023-02-24T18:39:09.076Z,97132.53
2023-02-24T18:41:35.849Z,97127.38
2023-02-24T18:44:02.572Z,97127.78
2023-02-24T18:46:29.386Z,97122.75
2023-02-24T18:48:57.078Z,97116.84
2023-02-24T18:51:29.180Z,97112.91
2023-02-24T18:54:00.585Z,97103.44
2023-02-24T18:56:29.330Z,97122.41
2023-02-24T18:58:57.956Z,97118.19
2023-02-24T19:01:33.843Z,97121.34
2023-02-24T19:04:01.148Z,97118.66
2023-02-24T19:06:31.148Z,97113.38
2023-02-24T19:09:06.741Z,97104.25
2023-02-24T19:11:34.248Z,97106.88
2023-02-24T19:14:01.153Z,97110.72
2023-02-24T19:16:31.272Z,97112.38
2023-02-24T19:18:59.807Z,97110.66
2023-02-24T19:21:29.107Z,97100.47
2023-02-24T19:23:55.906Z,97105.75
2023-02-24T19:26:25.961Z,97103.97
2023-02-24T19:28:53.845Z,97087.94
2023-02-24T19:31:26.664Z,97100.56
2023-02-24T19:34:00.304Z,97095.22
2023-02-24T19:36:28.525Z,97088.50
2023-02-24T19:38:55.291Z,97097.91
2023-02-24T19:41:22.403Z,97099.06
2023-02-24T19:43:49.135Z,97094.38
2023-02-24T19:46:17.444Z,97087.31
2023-02-24T19:48:46.025Z,97074.69
2023-02-24T19:51:17.089Z,97087.44
2023-02-24T19:53:44.018Z,97075.88
2023-02-24T19:56:10.732Z,97085.19
2023-02-24T19:58:37.470Z,97089.63
2023-02-24T20:01:09.399Z,97081.34
2023-02-24T20:03:37.793Z,97083.97
2023-02-24T20:06:05.014Z,97074.31
2023-02-24T20:08:31.656Z,97086.66
2023-02-24T20:10:59.880Z,97055.09
2023-02-24T20:13:26.702Z,97080.91
2023-02-24T20:15:53.557Z,97072.09
2023-02-24T20:18:20.300Z,97067.13
2023-02-24T20:20:48.906Z,97057.88
2023-02-24T20:23:15.706Z,97047.72
2023-02-24T20:25:52.673Z,97052.16
2023-02-24T20:28:21.248Z,97048.56
2023-02-24T20:30:49.688Z,97047.09
2023-02-24T20:33:18.086Z,97044.59
2023-02-24T20:35:46.630Z,96968.25
2023-02-24T20:38:15.643Z,97044.59
2023-02-24T20:40:44.530Z,97041.00
2023-02-24T20:43:12.137Z,97046.59
2023-02-24T20:45:41.429Z,97040.97
2023-02-24T20:48:09.987Z,97035.09
2023-02-24T20:50:39.388Z,97037.25
2023-02-24T20:53:07.948Z,97035.03
2023-02-24T20:55:36.736Z,97018.59
2023-02-24T20:58:05.167Z,97021.69
2023-02-24T21:00:34.627Z,97007.31
2023-02-24T21:03:04.183Z,97019.22
2023-02-24T21:05:33.683Z,97006.63
2023-02-24T21:08:00.784Z,96993.63
2023-02-24T21:10:27.640Z,96996.81
2023-02-24T21:12:54.404Z,96992.81
2023-02-24T21:15:21.785Z,96980.97
2023-02-24T21:17:48.578Z,96993.03
2023-02-24T21:20:15.425Z,96977.06
2023-02-24T21:22:42.281Z,96995.94
2023-02-24T21:25:10.947Z,97007.25
2023-02-24T21:27:38.432Z,96979.94
2023-02-24T21:30:06.941Z,96996.28
2023-02-24T21:32:33.958Z,96989.75
2023-02-24T21:35:02.172Z,96981.06
2023-02-24T21:37:29.133Z,96983.19
2023-02-24T21:39:55.817Z,96985.00
2023-02-24T21:42:22.612Z,96978.13
2023-02-24T21:44:52.140Z,96982.03
2023-02-24T21:47:19.038Z,96964.19
2023-02-24T21:49:46.342Z,96968.53
2023-02-24T21:52:13.182Z,96964.97
2023-02-24T21:54:42.319Z,96969.66
2023-02-24T21:57:09.058Z,96959.66
2023-02-24T21:59:35.854Z,96957.63
2023-02-24T22:02:02.698Z,96966.91
2023-02-24T22:04:29.468Z,96956.63
2023-02-24T22:06:56.188Z,96959.34
2023-02-24T22:09:22.957Z,96953.88
2023-02-24T22:11:50.145Z,96956.06
2023-02-24T22:14:17.163Z,96955.13
2023-02-24T22:16:44.599Z,96941.06
2023-02-24T22:19:11.755Z,96947.44
2023-02-24T22:21:41.711Z,96951.72
2023-02-24T22:24:12.480Z,96953.50
2023-02-24T22:26:40.145Z,96942.72
2023-02-24T22:29:07.294Z,96953.34
2023-02-24T22:31:36.485Z,96940.41
2023-02-24T22:34:04.913Z,96936.97
2023-02-24T22:36:34.138Z,96932.88
2023-02-24T22:39:01.848Z,96941.38
2023-02-24T22:41:31.387Z,96941.88
2023-02-24T22:43:58.647Z,96928.00
2023-02-24T22:46:33.074Z,96926.91
2023-02-24T22:48:59.937Z,96925.69
2023-02-24T22:51:27.313Z,96931.53
2023-02-24T22:53:54.971Z,96927.34
2023-02-24T22:56:24.745Z,96925.69
2023-02-24T22:58:51.984Z,96915.03
2023-02-24T23:01:33.799Z,96920.44
2023-02-24T23:04:02.443Z,96922.47
2023-02-24T23:06:30.347Z,96914.22
2023-02-24T23:08:58.789Z,96917.44
2023-02-24T23:11:34.920Z,96898.19
2023-02-24T23:14:06.054Z,96899.38
2023-02-24T23:16:35.522Z,96895.53
2023-02-24T23:19:05.101Z,96885.56
2023-02-24T23:21:35.664Z,96886.91
2023-02-24T23:24:03.379Z,96875.25
2023-02-24T23:26:35.917Z,96876.34
2023-02-24T23:29:03.567Z,96874.16
2023-02-24T23:31:30.718Z,96884.19
2023-02-24T23:33:58.017Z,96869.41
2023-02-24T23:36:25.324Z,96869.00
2023-02-24T23:38:52.761Z,96856.63
2023-02-24T23:41:19.692Z,96861.72
2023-02-24T23:43:46.464Z,96839.13
2023-02-24T23:46:13.714Z,96853.06
2023-02-24T23:48:40.992Z,96855.72
2023-02-24T23:51:13.226Z,96848.34
2023-02-24T23:53:41.915Z,96843.88
2023-02-24T23:56:23.833Z,96842.34
2023-02-24T23:58:52.195Z,96828.41
